createdAt,value
2023-03-17T00:00:57.283Z,1.98
2023-03-17T00:03:25.769Z,1.77
2023-03-17T00:05:53.869Z,2.30
2023-03-17T00:08:24.095Z,3.53
2023-03-17T00:10:52.312Z,1.90
2023-03-17T00:13:22.144Z,2.30
2023-03-17T00:15:55.213Z,2.22
2023-03-17T00:21:40.520Z,3.53
2023-03-17T00:24:11.873Z,2.55
2023-03-17T00:26:42.019Z,1.92
2023-03-17T00:29:16.579Z,1.85
2023-03-17T00:31:45.101Z,2.50
2023-03-17T00:34:12.417Z,3.30
2023-03-17T00:40:18.057Z,2.53
2023-03-17T00:42:46.372Z,2.20
2023-03-17T00:45:15.854Z,2.25
2023-03-17T00:47:43.712Z,2.20
2023-03-17T00:50:13.923Z,2.33
2023-03-17T00:52:43.055Z,2.10
2023-03-17T00:58:30.094Z,1.77
2023-03-17T01:00:57.560Z,2.42
2023-03-17T01:03:25.843Z,2.15
2023-03-17T01:05:54.417Z,3.53
2023-03-17T01:08:22.710Z,2.72
2023-03-17T01:10:50.459Z,2.45
2023-03-17T01:13:20.011Z,1.98
2023-03-17T01:15:47.691Z,1.80
2023-03-17T01:18:17.265Z,1.98
2023-03-17T01:20:46.691Z,2.15
2023-03-17T01:23:15.220Z,2.28
2023-03-17T01:25:43.831Z,1.70
2023-03-17T01:28:12.757Z,2.88
2023-03-17T01:30:41.743Z,2.65
2023-03-17T01:33:12.169Z,2.47
2023-03-17T01:35:46.881Z,2.65
2023-03-17T01:38:20.072Z,2.53
2023-03-17T01:40:50.007Z,2.30
2023-03-17T01:43:17.762Z,2.90
2023-03-17T01:45:46.417Z,2.15
2023-03-17T01:48:13.847Z,2.47
2023-03-17T01:50:43.259Z,2.75
2023-03-17T01:53:12.522Z,2.63
2023-03-17T01:55:40.444Z,3.60
2023-03-17T01:58:08.041Z,2.75
2023-03-17T02:00:36.171Z,2.60
2023-03-17T02:03:06.616Z,2.53
2023-03-17T02:05:34.703Z,3.00
2023-03-17T02:08:03.531Z,3.83
2023-03-17T02:10:32.640Z,2.42
2023-03-17T02:13:00.553Z,2.55
2023-03-17T02:15:28.770Z,3.22
2023-03-17T02:17:56.317Z,3.70
2023-03-17T02:20:25.461Z,2.70
2023-03-17T02:22:53.314Z,2.40
2023-03-17T02:25:21.963Z,3.22
2023-03-17T02:27:51.333Z,2.25
2023-03-17T02:30:21.272Z,2.38
2023-03-17T02:32:48.720Z,2.60
2023-03-17T02:35:16.097Z,2.53
2023-03-17T02:37:47.054Z,2.10
2023-03-17T02:40:14.722Z,4.57
2023-03-17T02:42:42.415Z,2.17
2023-03-17T02:45:12.013Z,2.03
2023-03-17T02:47:41.572Z,2.33
2023-03-17T02:50:08.897Z,1.85
2023-03-17T02:52:36.574Z,2.22
2023-03-17T02:55:03.978Z,2.10
2023-03-17T02:57:31.227Z,2.42
2023-03-17T02:59:58.844Z,2.28
2023-03-17T03:02:30.211Z,1.63
2023-03-17T03:04:57.637Z,1.92
2023-03-17T03:07:24.891Z,4.47
2023-03-17T03:09:52.549Z,2.17
2023-03-17T03:12:19.889Z,2.13
2023-03-17T03:14:47.757Z,2.13
2023-03-17T03:17:15.471Z,2.35
2023-03-17T03:19:43.384Z,2.42
2023-03-17T03:22:13.337Z,2.55
2023-03-17T03:24:40.925Z,3.67
2023-03-17T03:27:08.203Z,2.60
2023-03-17T03:29:35.532Z,2.63
2023-03-17T03:32:02.795Z,2.03
2023-03-17T03:34:30.782Z,2.58
2023-03-17T03:37:04.167Z,2.72
2023-03-17T03:39:32.124Z,2.00
2023-03-17T03:41:59.395Z,2.67
2023-03-17T03:44:26.729Z,2.97
2023-03-17T03:46:54.007Z,2.53
2023-03-17T03:49:22.696Z,2.38
2023-03-17T03:51:49.940Z,2.88
2023-03-17T03:54:18.395Z,2.45
2023-03-17T03:56:45.679Z,2.47
2023-03-17T03:59:12.970Z,2.40
2023-03-17T04:01:40.436Z,2.30
2023-03-17T04:04:07.731Z,2.30
2023-03-17T04:06:34.976Z,2.85
2023-03-17T04:09:02.669Z,2.38
2023-03-17T04:11:29.895Z,2.50
2023-03-17T04:13:57.455Z,2.67
2023-03-17T04:16:24.907Z,2.88
2023-03-17T04:18:52.576Z,2.55
2023-03-17T04:21:20.671Z,2.05
2023-03-17T04:23:48.000Z,2.75
2023-03-17T04:26:15.279Z,2.08
2023-03-17T04:28:42.638Z,2.28
2023-03-17T04:31:09.971Z,2.38
2023-03-17T04:33:37.369Z,2.30
2023-03-17T04:36:04.778Z,2.08
2023-03-17T04:38:32.143Z,2.33
2023-03-17T04:40:59.406Z,2.00
2023-03-17T04:43:27.227Z,2.17
2023-03-17T04:45:54.596Z,1.95
2023-03-17T04:48:21.899Z,2.60
2023-03-17T04:50:49.224Z,2.00
2023-03-17T04:53:16.673Z,2.00
2023-03-17T04:55:44.021Z,2.03
2023-03-17T04:58:21.099Z,2.08
2023-03-17T05:00:55.816Z,2.10
2023-03-17T05:03:27.312Z,2.00
2023-03-17T05:05:55.669Z,2.88
2023-03-17T05:08:23.087Z,2.30
2023-03-17T05:10:51.164Z,2.30
2023-03-17T05:13:19.082Z,2.47
2023-03-17T05:15:46.455Z,3.10
2023-03-17T05:18:13.683Z,2.95
2023-03-17T05:20:41.498Z,3.00
2023-03-17T05:23:08.830Z,3.53
2023-03-17T05:25:36.770Z,4.15
2023-03-17T05:28:04.077Z,3.28
2023-03-17T05:30:31.766Z,3.05
2023-03-17T05:32:59.445Z,3.38
2023-03-17T05:35:27.623Z,2.72
2023-03-17T05:37:54.979Z,3.03
2023-03-17T05:40:23.992Z,2.55
2023-03-17T05:42:51.546Z,4.88
2023-03-17T05:45:22.972Z,3.60
2023-03-17T05:47:50.364Z,2.67
2023-03-17T05:50:17.894Z,3.42
2023-03-17T05:52:45.806Z,3.67
2023-03-17T05:55:13.299Z,3.75
2023-03-17T05:57:40.631Z,4.00
2023-03-17T06:00:07.850Z,4.18
2023-03-17T06:02:35.939Z,3.72
2023-03-17T06:05:03.802Z,3.80
2023-03-17T06:07:41.133Z,4.57
2023-03-17T06:12:43.846Z,4.40
2023-03-17T06:15:11.418Z,4.28
2023-03-17T06:17:39.414Z,4.55
2023-03-17T06:20:06.798Z,4.10
2023-03-17T06:22:34.536Z,4.63
2023-03-17T06:25:02.101Z,4.60
2023-03-17T06:27:31.305Z,4.05
2023-03-17T06:30:00.523Z,4.57
2023-03-17T06:32:28.581Z,4.35
2023-03-17T06:34:57.494Z,4.22
2023-03-17T06:37:26.674Z,4.35
2023-03-17T06:39:54.343Z,4.50
2023-03-17T06:42:22.978Z,3.83
2023-03-17T06:45:02.253Z,3.90
2023-03-17T06:47:41.095Z,3.95
2023-03-17T06:50:10.046Z,5.10
2023-03-17T06:52:37.659Z,3.80
2023-03-17T06:55:05.630Z,4.75
2023-03-17T06:57:33.881Z,3.72
2023-03-17T07:00:02.776Z,3.90
2023-03-17T07:02:31.838Z,3.88
2023-03-17T07:05:05.744Z,3.45
2023-03-17T07:07:37.917Z,3.50
2023-03-17T07:10:07.480Z,3.50
2023-03-17T07:12:37.630Z,3.80
2023-03-17T07:15:05.649Z,3.80
2023-03-17T07:17:42.909Z,3.65
2023-03-17T07:20:12.650Z,3.38
2023-03-17T07:22:40.094Z,3.35
2023-03-17T07:25:08.182Z,4.18
2023-03-17T07:27:36.009Z,3.63
2023-03-17T07:30:05.194Z,3.55
2023-03-17T07:32:32.694Z,3.17
2023-03-17T07:35:00.335Z,3.90
2023-03-17T07:37:28.097Z,3.78
2023-03-17T07:39:56.869Z,3.40
2023-03-17T07:42:26.346Z,3.63
2023-03-17T07:44:54.287Z,3.72
2023-03-17T07:47:23.610Z,4.25
2023-03-17T07:49:52.319Z,4.30
2023-03-17T07:52:22.029Z,3.50
2023-03-17T07:54:51.782Z,3.05
2023-03-17T07:57:19.509Z,2.80
2023-03-17T07:59:47.956Z,3.00
2023-03-17T08:02:16.166Z,3.22
2023-03-17T08:04:44.562Z,3.95
2023-03-17T08:07:13.994Z,3.20
2023-03-17T08:09:42.085Z,3.25
2023-03-17T08:12:11.284Z,3.28
2023-03-17T08:14:40.309Z,3.53
2023-03-17T08:17:08.144Z,2.95
2023-03-17T08:19:38.395Z,3.22
2023-03-17T08:22:07.570Z,3.70
2023-03-17T08:24:36.582Z,2.72
2023-03-17T08:27:04.859Z,3.85
2023-03-17T08:29:34.252Z,3.25
2023-03-17T08:32:04.377Z,2.20
2023-03-17T08:34:31.933Z,2.45
2023-03-17T08:36:59.364Z,2.17
2023-03-17T08:39:29.287Z,1.92
2023-03-17T08:42:01.760Z,1.85
2023-03-17T08:44:34.043Z,2.72
2023-03-17T08:47:02.345Z,2.28
2023-03-17T08:49:31.378Z,2.42
2023-03-17T08:52:00.240Z,1.52
2023-03-17T08:54:28.154Z,1.77
2023-03-17T08:56:56.413Z,1.60
2023-03-17T08:59:24.592Z,1.80
2023-03-17T09:01:53.737Z,2.15
2023-03-17T09:04:22.960Z,1.70
2023-03-17T09:07:02.709Z,1.50
2023-03-17T09:09:31.314Z,1.80
2023-03-17T09:11:58.722Z,1.58
2023-03-17T09:14:26.356Z,1.60
2023-03-17T09:16:53.607Z,1.85
2023-03-17T09:19:21.756Z,2.72
2023-03-17T09:21:49.103Z,1.70
2023-03-17T09:24:16.478Z,1.58
2023-03-17T09:26:43.849Z,1.70
2023-03-17T09:29:11.166Z,1.48
2023-03-17T09:31:38.620Z,1.90
2023-03-17T09:34:05.938Z,1.83
2023-03-17T09:36:36.411Z,1.20
2023-03-17T09:39:03.750Z,1.08
2023-03-17T09:41:31.001Z,1.13
2023-03-17T09:43:58.320Z,1.40
2023-03-17T09:46:25.654Z,1.10
2023-03-17T09:48:52.975Z,1.08
2023-03-17T09:51:20.272Z,1.08
2023-03-17T09:53:48.507Z,0.70
2023-03-17T09:56:16.369Z,0.70
2023-03-17T09:58:43.788Z,0.85
2023-03-17T10:01:12.909Z,0.60
2023-03-17T10:03:40.267Z,0.95
2023-03-17T10:06:07.632Z,0.50
2023-03-17T10:08:35.916Z,0.70
2023-03-17T10:11:03.216Z,0.40
2023-03-17T10:13:30.834Z,0.55
2023-03-17T10:15:58.183Z,0.95
2023-03-17T10:18:25.902Z,0.65
2023-03-17T10:20:53.260Z,0.70
2023-03-17T10:23:20.780Z,0.80
2023-03-17T10:25:48.580Z,0.65
2023-03-17T10:28:16.191Z,0.75
2023-03-17T10:30:44.109Z,0.75
2023-03-17T10:33:11.602Z,0.70
2023-03-17T10:35:39.753Z,0.73
2023-03-17T10:38:14.421Z,1.10
2023-03-17T10:40:42.211Z,0.57
2023-03-17T10:43:13.948Z,0.60
2023-03-17T10:45:50.425Z,0.85
2023-03-17T10:48:20.204Z,1.67
2023-03-17T10:50:49.485Z,0.80
2023-03-17T10:53:18.472Z,1.38
2023-03-17T10:55:45.796Z,5.22
2023-03-17T10:58:13.378Z,3.90
2023-03-17T11:00:41.819Z,2.90
2023-03-17T11:03:09.674Z,3.72
2023-03-17T11:05:38.951Z,4.20
2023-03-17T11:08:06.429Z,3.33
2023-03-17T11:10:35.386Z,3.78
2023-03-17T11:13:02.801Z,4.35
2023-03-17T11:15:30.198Z,3.42
2023-03-17T11:17:57.544Z,2.78
2023-03-17T11:20:25.038Z,2.40
2023-03-17T11:22:52.479Z,3.35
2023-03-17T11:25:19.919Z,2.30
2023-03-17T11:27:47.373Z,2.45
2023-03-17T11:30:14.975Z,1.45
2023-03-17T11:32:43.723Z,1.85
2023-03-17T11:35:11.004Z,1.50
2023-03-17T11:37:38.371Z,1.52
2023-03-17T11:40:06.251Z,1.85
2023-03-17T11:42:33.632Z,2.13
2023-03-17T11:45:01.442Z,1.98
2023-03-17T11:47:28.763Z,2.85
2023-03-17T11:49:56.044Z,2.90
2023-03-17T11:52:23.496Z,2.38
2023-03-17T11:54:50.827Z,3.20
2023-03-17T11:57:19.057Z,2.20
2023-03-17T11:59:46.488Z,1.60
2023-03-17T12:02:13.877Z,0.98
2023-03-17T12:04:41.399Z,1.30
2023-03-17T12:07:09.089Z,1.40
2023-03-17T12:09:36.434Z,1.17
2023-03-17T12:12:03.737Z,0.90
2023-03-17T12:14:30.991Z,1.98
2023-03-17T12:17:00.310Z,1.08
2023-03-17T12:19:28.356Z,1.25
2023-03-17T12:21:55.787Z,1.33
2023-03-17T12:24:23.963Z,1.88
2023-03-17T12:26:51.447Z,1.50
2023-03-17T12:29:19.816Z,1.38
2023-03-17T12:31:48.138Z,1.15
2023-03-17T12:34:18.634Z,1.75
2023-03-17T12:36:46.138Z,1.27
2023-03-17T12:39:13.523Z,1.83
2023-03-17T12:41:40.841Z,1.25
2023-03-17T12:44:08.208Z,0.95
2023-03-17T12:46:35.605Z,1.17
2023-03-17T12:49:02.929Z,1.05
2023-03-17T12:51:30.253Z,0.85
2023-03-17T12:53:59.173Z,1.92
2023-03-17T12:56:26.723Z,1.42
2023-03-17T12:58:56.557Z,1.20
2023-03-17T13:01:24.273Z,1.52
2023-03-17T13:03:51.703Z,1.00
2023-03-17T13:06:19.051Z,1.13
2023-03-17T13:08:46.817Z,1.25
2023-03-17T13:11:14.003Z,1.88
2023-03-17T13:13:41.355Z,1.67
2023-03-17T13:16:09.763Z,1.25
2023-03-17T13:18:37.484Z,1.67
2023-03-17T13:21:04.981Z,1.20
2023-03-17T13:23:32.208Z,1.00
2023-03-17T13:25:59.534Z,1.73
2023-03-17T13:28:27.290Z,1.13
2023-03-17T13:30:54.644Z,1.23
2023-03-17T13:33:24.095Z,1.38
2023-03-17T13:35:51.827Z,1.08
2023-03-17T13:38:19.161Z,0.82
2023-03-17T13:40:46.392Z,1.35
2023-03-17T13:43:14.006Z,0.63
2023-03-17T13:45:41.555Z,1.15
2023-03-17T13:48:09.528Z,0.82
2023-03-17T13:50:38.160Z,1.00
2023-03-17T13:53:07.769Z,1.45
2023-03-17T13:55:35.238Z,0.90
2023-03-17T13:58:03.051Z,1.02
2023-03-17T14:00:31.518Z,1.02
2023-03-17T14:02:59.071Z,0.75
2023-03-17T14:05:27.221Z,0.60
2023-03-17T14:07:54.568Z,0.60
2023-03-17T14:10:21.864Z,0.90
2023-03-17T14:12:51.122Z,0.68
2023-03-17T14:15:18.606Z,1.42
2023-03-17T14:17:46.622Z,0.70
2023-03-17T14:20:13.861Z,0.70
2023-03-17T14:22:43.794Z,2.47
2023-03-17T14:25:12.239Z,0.70
2023-03-17T14:27:39.581Z,0.73
2023-03-17T14:30:06.892Z,0.60
2023-03-17T14:32:34.251Z,0.90
2023-03-17T14:35:01.850Z,0.70
2023-03-17T14:37:29.179Z,1.20
2023-03-17T14:39:57.644Z,0.90
2023-03-17T14:42:25.226Z,1.60
2023-03-17T14:44:52.546Z,2.70
2023-03-17T14:47:19.848Z,1.33
2023-03-17T14:49:47.247Z,1.60
2023-03-17T14:52:14.522Z,1.30
2023-03-17T14:54:41.891Z,3.38
2023-03-17T14:57:09.205Z,1.00
2023-03-17T14:59:36.452Z,1.02
2023-03-17T15:02:03.795Z,0.60
2023-03-17T15:04:31.306Z,0.88
2023-03-17T15:06:58.637Z,1.02
2023-03-17T15:09:26.392Z,1.10
2023-03-17T15:11:53.810Z,1.58
2023-03-17T15:14:21.425Z,0.93
2023-03-17T15:16:49.731Z,0.82
2023-03-17T15:19:17.141Z,1.65
2023-03-17T15:21:44.408Z,0.85
2023-03-17T15:24:11.624Z,1.45
2023-03-17T15:26:38.903Z,1.40
2023-03-17T15:29:06.153Z,1.17
2023-03-17T15:31:33.569Z,1.52
2023-03-17T15:34:00.867Z,0.93
2023-03-17T15:36:48.556Z,1.10
2023-03-17T15:39:15.894Z,1.35
2023-03-17T15:41:43.193Z,1.95
2023-03-17T15:44:10.417Z,1.38
2023-03-17T15:46:37.705Z,1.30
2023-03-17T15:49:05.042Z,1.48
2023-03-17T15:51:32.317Z,1.42
2023-03-17T15:53:59.694Z,1.23
2023-03-17T15:56:27.113Z,1.55
2023-03-17T15:58:54.417Z,2.92
2023-03-17T16:01:21.865Z,1.55
2023-03-17T16:03:49.262Z,1.45
2023-03-17T16:06:16.551Z,1.70
2023-03-17T16:08:43.889Z,1.83
2023-03-17T16:11:13.138Z,1.90
2023-03-17T16:13:40.548Z,2.33
2023-03-17T16:16:08.079Z,2.05
2023-03-17T16:18:36.295Z,2.70
2023-03-17T16:21:04.299Z,2.22
2023-03-17T16:23:31.911Z,3.50
2023-03-17T16:26:11.678Z,1.63
2023-03-17T16:28:42.058Z,1.73
2023-03-17T16:31:09.340Z,2.13
2023-03-17T16:33:36.744Z,1.48
2023-03-17T16:36:06.966Z,1.35
2023-03-17T16:38:34.250Z,2.65
2023-03-17T16:41:01.441Z,1.50
2023-03-17T16:43:28.793Z,1.52
2023-03-17T16:45:56.159Z,1.50
2023-03-17T16:48:23.463Z,1.85
2023-03-17T16:50:50.948Z,1.08
2023-03-17T16:53:18.350Z,1.25
2023-03-17T16:55:45.546Z,1.55
2023-03-17T16:58:13.848Z,2.28
2023-03-17T17:00:41.486Z,1.60
2023-03-17T17:03:08.824Z,2.53
2023-03-17T17:05:36.253Z,3.95
2023-03-17T17:08:03.860Z,1.42
2023-03-17T17:10:31.497Z,1.65
2023-03-17T17:12:58.983Z,1.40
2023-03-17T17:15:26.312Z,1.60
2023-03-17T17:17:53.576Z,1.90
2023-03-17T17:20:21.658Z,1.75
2023-03-17T17:22:51.404Z,3.65
2023-03-17T17:25:19.976Z,2.55
2023-03-17T17:27:47.267Z,2.17
2023-03-17T17:30:14.538Z,3.05
2023-03-17T17:32:41.822Z,2.60
2023-03-17T17:35:09.160Z,2.55
2023-03-17T17:37:36.498Z,2.75
2023-03-17T17:40:03.950Z,2.10
2023-03-17T17:42:31.214Z,2.28
2023-03-17T17:44:58.584Z,2.10
2023-03-17T17:47:26.854Z,3.10
2023-03-17T17:49:57.239Z,2.55
2023-03-17T17:52:24.767Z,2.67
2023-03-17T17:54:52.491Z,2.35
2023-03-17T17:57:20.117Z,4.03
2023-03-17T17:59:47.466Z,3.17
2023-03-17T18:02:14.975Z,2.95
2023-03-17T18:04:42.845Z,2.75
2023-03-17T18:07:10.139Z,2.75
2023-03-17T18:09:37.426Z,3.80
2023-03-17T18:12:04.947Z,2.88
2023-03-17T18:14:32.352Z,3.33
2023-03-17T18:16:59.616Z,2.80
2023-03-17T18:19:27.186Z,2.58
2023-03-17T18:21:56.149Z,4.07
2023-03-17T18:24:25.016Z,2.10
2023-03-17T18:26:52.621Z,1.52
2023-03-17T18:29:19.924Z,2.25
2023-03-17T18:31:47.489Z,2.13
2023-03-17T18:34:15.000Z,3.25
2023-03-17T18:36:42.394Z,2.17
2023-03-17T18:39:09.849Z,2.63
2023-03-17T18:41:37.203Z,2.47
2023-03-17T18:44:04.956Z,3.17
2023-03-17T18:46:33.050Z,2.20
2023-03-17T18:49:01.088Z,2.33
2023-03-17T18:51:28.601Z,2.42
2023-03-17T18:54:00.187Z,3.30
2023-03-17T18:56:29.710Z,3.25
2023-03-17T18:58:57.012Z,3.78
2023-03-17T19:01:24.313Z,4.22
2023-03-17T19:03:51.611Z,4.78
2023-03-17T19:06:18.946Z,3.42
2023-03-17T19:08:46.479Z,2.95
2023-03-17T19:11:14.121Z,2.70
2023-03-17T19:13:42.155Z,6.25
2023-03-17T19:16:09.566Z,2.67
2023-03-17T19:18:37.642Z,2.72
2023-03-17T19:21:04.975Z,2.63
2023-03-17T19:23:33.701Z,3.65
2023-03-17T19:26:01.280Z,2.55
2023-03-17T19:28:28.663Z,3.95
2023-03-17T19:30:56.342Z,4.07
2023-03-17T19:33:23.755Z,2.83
2023-03-17T19:35:51.060Z,4.38
2023-03-17T19:38:19.256Z,2.42
2023-03-17T19:40:46.650Z,3.22
2023-03-17T19:43:20.175Z,2.90
2023-03-17T19:45:56.988Z,3.13
2023-03-17T19:48:24.508Z,3.75
2023-03-17T19:50:52.031Z,3.22
2023-03-17T19:53:19.362Z,3.00
2023-03-17T19:55:46.745Z,3.63
2023-03-17T19:58:14.021Z,3.88
2023-03-17T20:00:41.367Z,5.93
2023-03-17T20:03:08.942Z,4.47
2023-03-17T20:05:36.394Z,4.85
2023-03-17T20:08:03.650Z,4.72
2023-03-17T20:10:31.314Z,5.43
2023-03-17T20:12:58.769Z,5.38
2023-03-17T20:15:26.432Z,6.25
2023-03-17T20:17:53.994Z,6.13
2023-03-17T20:20:21.331Z,5.70
2023-03-17T20:22:48.609Z,5.93
2023-03-17T20:25:16.065Z,6.07
2023-03-17T20:27:43.342Z,5.63
2023-03-17T20:30:12.359Z,6.90
2023-03-17T20:32:39.959Z,7.75
2023-03-17T20:35:08.306Z,5.82
2023-03-17T20:37:35.819Z,6.45
2023-03-17T20:40:05.412Z,7.80
2023-03-17T20:42:32.878Z,6.25
2023-03-17T20:45:00.324Z,5.70
2023-03-17T20:47:28.509Z,5.68
2023-03-17T20:49:58.820Z,5.63
2023-03-17T20:52:28.882Z,5.97
2023-03-17T20:54:57.949Z,6.15
2023-03-17T20:57:25.398Z,6.30
2023-03-17T20:59:53.070Z,6.50
2023-03-17T21:02:21.028Z,5.53
2023-03-17T21:04:49.245Z,6.07
2023-03-17T21:07:16.786Z,5.18
2023-03-17T21:09:44.325Z,4.70
2023-03-17T21:12:11.841Z,4.43
2023-03-17T21:14:39.573Z,4.95
2023-03-17T21:17:07.937Z,6.50
2023-03-17T21:19:35.484Z,5.78
2023-03-17T21:22:02.828Z,5.38
2023-03-17T21:24:32.134Z,5.97
2023-03-17T21:26:59.792Z,5.35
2023-03-17T21:29:27.367Z,5.45
2023-03-17T21:31:54.755Z,6.93
2023-03-17T21:34:22.407Z,5.40
2023-03-17T21:36:49.868Z,4.10
2023-03-17T21:39:19.940Z,5.05
2023-03-17T21:41:48.953Z,5.15
2023-03-17T21:44:17.874Z,5.32
2023-03-17T21:46:45.293Z,5.78
2023-03-17T21:49:13.501Z,6.10
2023-03-17T21:51:40.917Z,6.85
2023-03-17T21:54:08.810Z,5.57
2023-03-17T21:56:36.656Z,4.40
2023-03-17T21:59:04.174Z,6.15
2023-03-17T22:01:31.628Z,4.18
2023-03-17T22:03:59.694Z,4.65
2023-03-17T22:06:29.527Z,5.28
2023-03-17T22:08:56.753Z,3.97
2023-03-17T22:11:24.220Z,4.18
2023-03-17T22:13:51.580Z,4.70
2023-03-17T22:16:19.839Z,4.45
2023-03-17T22:18:48.121Z,5.00
2023-03-17T22:21:15.616Z,3.92
2023-03-17T22:23:43.007Z,4.13
2023-03-17T22:26:10.391Z,4.07
2023-03-17T22:28:38.101Z,6.18
2023-03-17T22:31:07.156Z,5.57
2023-03-17T22:33:35.023Z,4.22
2023-03-17T22:36:02.960Z,4.88
2023-03-17T22:38:30.817Z,6.25
2023-03-17T22:40:58.155Z,4.10
2023-03-17T22:43:25.621Z,3.88
2023-03-17T22:45:54.476Z,4.10
2023-03-17T22:48:21.976Z,5.00
2023-03-17T22:50:49.402Z,3.60
2023-03-17T22:53:17.008Z,3.15
2023-03-17T22:55:44.514Z,2.88
2023-03-17T22:58:11.800Z,2.67
2023-03-17T23:00:40.216Z,4.25
2023-03-17T23:03:07.564Z,3.13
2023-03-17T23:05:34.917Z,3.33
2023-03-17T23:08:02.384Z,3.45
2023-03-17T23:10:30.037Z,2.97
2023-03-17T23:12:57.460Z,3.00
2023-03-17T23:15:24.925Z,3.78
2023-03-17T23:17:52.284Z,2.95
2023-03-17T23:20:19.582Z,3.40
2023-03-17T23:22:47.117Z,4.18
2023-03-17T23:25:14.484Z,4.03
2023-03-17T23:27:42.017Z,4.93
2023-03-17T23:30:11.629Z,4.63
2023-03-17T23:32:39.205Z,3.88
2023-03-17T23:35:07.200Z,5.32
2023-03-17T23:37:34.601Z,3.92
2023-03-17T23:40:01.943Z,4.55
2023-03-17T23:42:29.456Z,4.68
2023-03-17T23:45:00.292Z,4.38
2023-03-17T23:47:27.891Z,3.88
2023-03-17T23:49:55.336Z,5.55
2023-03-17T23:52:22.835Z,4.45
2023-03-17T23:54:50.056Z,4.78
2023-03-17T23:57:17.387Z,4.18
2023-03-17T23:59:44.787Z,5.03
